Latest Weather Observations for Cape Grim

IDT60801

Issued at 2:21 am EST Tuesday 17 May 2022 (issued every 10 minutes, with the page automatically refreshed every 10 minutes)

About weather observations | Map of weather stations | Latest weather observations for TAS | Other Formats
Station Details ID: 091331 Name: CAPE GRIM Lat: -40.68 Lon: 144.69 Height: 86.0 m
Data from the previous 72 hours. | See also: Recent months at Cape Grim
Date/Time
EST
Temp
°C
App
Temp
°C
Dew
Point
°C
Rel
Hum
%
Delta-T
°C
Wind Press
QNH
hPa
Press
MSL
hPa
Rain since
9am
mm
Dir  Spd
km/h
Gust
km/h
Spd
kts
Gust
kts
17/02:07am 11.4 1.6 5.5 67 2.7 W 46 65 25 35 1009.7 1009.7 3.2
17/02:00am 11.7 0.7 5.1 64 3.0 W 52 65 28 35 1009.7 1009.7 3.2
17/01:30am 12.0 2.6 5.2 63 3.1 W 44 65 24 35 1009.6 1009.6 3.2
17/01:03am 11.5 2.1 5.6 67 2.7 W 44 63 24 34 1009.8 1009.8 3.2
17/01:00am 11.5 1.8 5.6 67 2.7 W 46 63 25 34 1009.8 1009.8 3.2
17/12:30am 11.1 1.1 6.3 72 2.3 W 48 69 26 37 1009.7 1009.7 3.0
17/12:00am 10.6 1.7 4.9 68 2.6 W 41 59 22 32 1010.0 1010.0 3.0
 
Date/Time
EST
Temp
°C
App
Temp
°C
Dew
Point
°C
Rel
Hum
%
Delta-T
°C
Wind Press
QNH
hPa
Press
MSL
hPa
Rain since
9am
mm
Dir  Spd
km/h
Gust
km/h
Spd
kts
Gust
kts
16/11:41pm 11.2 2.2 6.3 72 2.3 W 43 61 23 33 1009.5 1009.5 3.0
16/11:30pm 10.2 1.1 6.0 75 1.9 WNW 43 56 23 30 1009.6 1009.6 3.0
16/11:17pm 11.0 1.3 6.0 71 2.3 W 46 74 25 40 1009.5 1009.5 3.0
16/11:00pm 10.7 0.3 4.0 63 3.0 W 48 63 26 34 1009.6 1009.6 3.0
16/10:30pm 10.9 -1.1 6.5 74 2.1 W 59 83 32 45 1009.3 1009.3 2.8
16/10:24pm 11.3 1.6 6.0 70 2.5 W 46 82 25 44 1009.3 1009.3 2.8
16/10:02pm 11.7 3.1 4.7 62 3.2 W 39 59 21 32 1009.2 1009.2 2.8
16/10:00pm 11.6 3.0 4.6 62 3.2 W 39 54 21 29 1009.3 1009.3 2.8
16/09:30pm 11.7 0.4 3.2 56 3.8 W 52 72 28 39 1008.9 1008.9 2.8
16/09:00pm 11.5 2.3 5.6 67 2.8 W 43 65 23 35 1008.7 1008.7 2.8
16/08:31pm 11.0 1.3 5.7 70 2.5 W 46 65 25 35 1008.6 1008.6 2.8
16/08:30pm 11.1 1.8 5.8 70 2.5 W 44 61 24 33 1008.6 1008.6 2.8
16/08:23pm 10.7 1.6 5.7 71 2.3 W 43 61 23 33 1008.6 1008.6 2.8
16/08:00pm 10.0 2.1 6.3 78 1.7 W 37 52 20 28 1008.6 1008.6 2.8
16/07:30pm 11.0 1.9 6.0 71 2.3 W 43 61 23 33 1008.4 1008.4 2.4
16/07:08pm 11.0 3.7 5.5 69 2.5 W 33 52 18 28 1007.8 1007.8 2.4
16/07:00pm 10.8 3.9 6.6 75 2.0 W 32 44 17 24 1007.9 1007.9 2.4
16/06:32pm 11.3 2.7 6.4 72 2.3 W 41 59 22 32 1007.3 1007.3 2.4
16/06:30pm 11.1 2.8 6.3 72 2.3 W 39 56 21 30 1007.3 1007.3 2.4
16/06:00pm 11.2 2.1 5.7 69 2.6 W 43 63 23 34 1007.0 1007.0 2.4
16/05:30pm 9.7 2.7 8.3 91 0.7 W 35 57 19 31 1007.2 1007.2 2.4
16/05:19pm 9.9 2.5 6.6 80 1.5 WSW 35 76 19 41 1007.0 1007.0 1.4
16/05:00pm 11.0 3.9 6.4 73 2.2 WSW 33 52 18 28 1006.8 1006.8 0.8
16/04:30pm 11.7 2.6 5.8 67 2.8 W 43 63 23 34 1006.5 1006.5 0.8
16/04:00pm 11.7 2.7 6.4 70 2.5 W 43 65 23 35 1006.3 1006.3 0.8
16/03:40pm 11.7 4.0 7.0 73 2.3 W 37 57 20 31 1006.2 1006.2 0.8
16/03:30pm 11.7 3.6 7.2 74 2.2 W 39 54 21 29 1006.3 1006.3 0.8
16/03:00pm 11.8 1.9 6.5 70 2.5 W 48 72 26 39 1006.0 1006.0 0.6
16/02:30pm 12.3 1.3 5.2 62 3.3 W 52 74 28 40 1006.0 1006.0 0.6
16/02:15pm 12.8 2.2 5.2 60 3.5 W 50 70 27 38 1005.9 1005.9 0.6
16/02:00pm 12.3 0.9 4.8 60 3.5 W 54 67 29 36 1006.1 1006.1 0.6
16/01:31pm 11.8 0.8 5.0 63 3.1 W 52 74 28 40 1006.1 1006.1 0.6
16/01:30pm 11.7 0.6 4.4 61 3.3 W 52 69 28 37 1006.1 1006.1 0.6
16/01:00pm 10.9 -0.5 6.5 74 2.1 W 56 78 30 42 1006.4 1006.4 0.4
16/12:30pm 12.8 3.3 6.6 66 3.0 W 46 65 25 35 1006.4 1006.4 0.4
16/12:00pm 12.0 2.8 7.9 76 2.0 WNW 46 57 25 31 1007.0 1007.0 0.4
16/11:30am 10.3 -0.4 6.5 77 1.8 W 52 80 28 43 1007.2 1007.2 0.0
16/11:28am 10.9 1.3 6.1 72 2.2 W 46 80 25 43 1007.1 1007.1 0.0
16/11:27am 11.2 1.9 5.9 70 2.5 W 44 72 24 39 1007.1 1007.1 0.0
16/11:06am 11.9 4.2 5.5 65 3.0 W 35 56 19 30 1007.0 1007.0 0.0
16/11:00am 12.2 4.7 6.5 68 2.7 W 35 50 19 27 1007.0 1007.0 0.0
16/10:30am 11.2 3.5 7.1 76 2.0 W 37 63 20 34 1006.9 1006.9 0.0
16/10:00am 11.3 2.9 5.6 68 2.7 W 39 57 21 31 1006.7 1006.7 0.0
16/09:30am 12.2 2.7 4.9 61 3.4 W 44 63 24 34 1006.5 1006.5 0.0
16/09:00am 12.5 1.7 4.0 56 3.9 W 50 72 27 39 1006.0 1006.0 14.8
16/08:40am 12.1 3.1 4.6 60 3.4 W 41 59 22 32 1005.8 1005.8 14.8
16/08:30am 11.9 2.2 5.8 66 2.9 WNW 46 59 25 32 1005.8 1005.8 14.8
16/08:05am 11.3 1.6 6.0 70 2.5 WNW 46 74 25 40 1005.8 1005.8 14.6
16/08:00am 11.5 2.0 6.6 72 2.3 WNW 46 59 25 32 1005.6 1005.7 14.6
16/07:30am 11.3 1.0 6.6 73 2.2 W 50 69 27 37 1005.3 1005.3 14.4
16/07:08am 11.3 1.3 4.5 63 3.1 W 46 87 25 47 1004.8 1004.8 14.4
16/07:00am 11.6 3.1 6.9 73 2.3 W 41 70 22 38 1004.9 1004.9 14.4
16/06:30am 12.2 1.2 4.9 61 3.4 W 52 72 28 39 1004.6 1004.6 14.4
16/06:00am 12.1 1.1 7.0 71 2.5 W 54 72 29 39 1004.3 1004.3 14.4
16/05:30am 11.3 1.6 7.4 77 1.9 W 48 70 26 38 1004.0 1004.0 14.2
16/05:00am 11.6 4.2 8.3 80 1.6 W 37 59 20 32 1003.9 1003.9 13.6
16/04:30am 11.4 3.8 7.7 78 1.8 W 37 67 20 36 1003.3 1003.3 13.6
16/04:10am 12.1 3.0 8.6 79 1.7 W 46 69 25 37 1003.2 1003.2 13.0
16/04:09am 12.1 2.6 8.2 77 1.9 W 48 69 26 37 1003.1 1003.1 13.0
16/04:00am 12.9 1.3 6.7 66 3.0 WNW 57 76 31 41 1003.1 1003.1 13.0
16/03:36am 13.0 0.8 5.7 61 3.4 WNW 59 78 32 42 1003.0 1003.0 13.0
16/03:30am 12.8 1.1 6.4 65 3.1 WNW 57 74 31 40 1003.1 1003.1 13.0
16/03:00am 12.5 1.0 7.2 70 2.6 WNW 57 76 31 41 1003.3 1003.3 13.0
16/02:54am 12.6 2.1 7.5 71 2.5 WNW 52 70 28 38 1003.3 1003.3 13.0
16/02:30am 11.7 2.6 8.4 80 1.6 W 46 63 25 34 1003.4 1003.4 13.0
16/02:00am 13.0 1.4 5.9 62 3.4 W 56 74 30 40 1003.4 1003.4 13.0
16/01:30am 12.6 0.8 5.8 63 3.2 W 57 78 31 42 1003.4 1003.4 13.0
16/01:00am 12.9 -0.1 5.3 60 3.6 W 63 83 34 45 1003.2 1003.2 13.0
16/12:35am 12.5 0.4 7.6 72 2.4 W 61 80 33 43 1003.3 1003.3 13.0
16/12:30am 13.0 0.1 5.9 62 3.4 W 63 80 34 43 1003.1 1003.1 13.0
16/12:00am 13.0 -0.1 6.6 65 3.1 W 65 83 35 45 1002.9 1002.9 13.0
 
Date/Time
EST
Temp
°C
App
Temp
°C
Dew
Point
°C
Rel
Hum
%
Delta-T
°C
Wind Press
QNH
hPa
Press
MSL
hPa
Rain since
9am
mm
Dir  Spd
km/h
Gust
km/h
Spd
kts
Gust
kts
15/11:30pm 13.0 1.1 7.2 68 2.8 W 59 82 32 44 1002.6 1002.6 13.0
15/11:00pm 13.0 0.2 6.4 64 3.2 W 63 83 34 45 1002.1 1002.1 13.0
15/10:30pm 13.4 -0.9 7.4 67 2.9 W 72 98 39 53 1001.8 1001.8 13.0
15/10:00pm 13.3 -0.1 8.6 73 2.4 W 69 91 37 49 1001.7 1001.7 13.0
15/09:38pm 13.3 -0.8 6.4 63 3.3 W 70 95 38 51 1001.4 1001.4 13.0
15/09:30pm 13.5 2.7 9.9 79 1.9 W 57 76 31 41 1001.5 1001.5 13.0
15/09:00pm 13.2 1.6 9.8 80 1.8 WNW 61 80 33 43 1001.3 1001.3 13.0
15/08:31pm 13.2 2.6 10.7 85 1.3 WNW 57 78 31 42 1001.5 1001.5 13.0
15/08:30pm 13.1 2.5 10.6 85 1.3 WNW 57 70 31 38 1001.5 1001.5 13.0
15/08:00pm 11.8 0.7 11.5 98 0.2 W 61 91 33 49 1001.4 1001.4 12.8
15/07:51pm 12.6 2.9 10.3 86 1.2 WNW 52 80 28 43 1001.3 1001.3 11.6
15/07:36pm 12.7 5.3 11.1 90 0.8 WNW 41 59 22 32 1001.3 1001.3 11.6
15/07:30pm 12.8 5.1 11.4 91 0.7 NW 43 59 23 32 1001.4 1001.4 11.6
15/07:00pm 13.2 4.1 11.3 88 1.0 NW 50 69 27 37 1001.5 1001.5 10.8
15/06:33pm 14.4 6.9 12.1 86 1.2 NW 43 61 23 33 1001.5 1001.5 9.8
15/06:30pm 14.1 6.4 11.6 85 1.3 NW 43 57 23 31 1001.2 1001.2 9.8
15/06:14pm 14.4 6.8 11.7 84 1.5 NW 43 61 23 33 1001.4 1001.4 9.8
15/06:00pm 14.4 5.8 11.7 84 1.5 NW 48 59 26 32 1001.5 1001.5 9.8
15/05:36pm 14.6 6.5 11.9 84 1.5 NW 46 65 25 35 1001.8 1001.8 9.8
15/05:30pm 14.8 6.2 11.8 82 1.6 NW 48 63 26 34 1001.7 1001.7 9.8
15/05:18pm 14.9 6.8 12.2 84 1.5 NW 46 65 25 35 1001.8 1001.8 9.8
15/05:00pm 14.6 7.3 11.7 83 1.6 NW 41 56 22 30 1001.9 1001.9 9.8
15/04:31pm 14.4 6.4 11.2 81 1.7 NW 44 63 24 34 1001.8 1001.8 9.8
15/04:30pm 14.3 5.9 11.1 81 1.7 NW 46 63 25 34 1001.9 1001.9 9.8
15/04:09pm 14.2 7.3 11.7 85 1.3 NW 39 57 21 31 1002.0 1002.0 9.8
15/04:05pm 14.2 7.0 11.9 86 1.2 NW 41 57 22 31 1002.2 1002.2 9.8
15/04:00pm 14.1 6.9 12.0 87 1.1 NW 41 57 22 31 1002.2 1002.2 9.8
15/03:39pm 13.6 6.5 12.2 91 0.8 WNW 41 61 22 33 1002.6 1002.6 9.6
15/03:30pm 13.8 7.2 12.5 92 0.7 NW 39 48 21 26 1002.6 1002.6 9.4
15/03:00pm 13.1 7.6 12.3 95 0.4 NW 33 50 18 27 1002.9 1002.9 9.0
15/02:59pm 13.2 7.9 12.4 95 0.4 NW 32 50 17 27 1003.0 1003.0 9.0
15/02:49pm 12.9 8.3 12.3 96 0.3 WNW 28 39 15 21 1003.1 1003.1 9.0
15/02:30pm 12.5 7.8 11.9 96 0.3 W 28 39 15 21 1002.7 1002.7 9.0
15/02:27pm 12.5 7.8 11.9 96 0.3 W 28 39 15 21 1002.7 1002.7 9.0
15/02:00pm 12.2 7.3 11.4 95 0.4 W 28 43 15 23 1003.2 1003.2 5.8
15/01:57pm 12.2 7.3 11.4 95 0.4 W 28 43 15 23 1003.2 1003.2 4.2
15/01:35pm 13.1 4.1 10.3 83 1.5 WNW 48 70 26 38 1002.9 1002.9 0.2
15/01:33pm 14.5 5.2 10.5 77 2.1 NW 50 70 27 38 1002.9 1002.9 0.2
15/01:30pm 15.6 6.6 11.6 77 2.2 NW 50 67 27 36 1003.0 1003.0 0.2
15/01:06pm 15.3 7.1 11.7 79 2.0 NW 46 65 25 35 1003.4 1003.4 0.2
15/01:00pm 15.4 6.9 12.0 80 1.9 NNW 48 61 26 33 1003.3 1003.3 0.2
15/12:30pm 15.7 7.9 11.9 78 2.1 NW 44 67 24 36 1003.7 1003.7 0.2
15/12:27pm 15.4 7.9 12.0 80 1.9 NNW 43 67 23 36 1003.7 1003.7 0.2
15/12:00pm 15.2 8.7 12.9 86 1.3 NNW 39 50 21 27 1004.6 1004.6 0.2
15/11:30am 15.5 8.6 12.8 84 1.5 NNW 41 52 22 28 1005.3 1005.3 0.2
15/11:06am 15.0 7.2 11.8 81 1.7 NW 44 65 24 35 1006.0 1006.0 0.2
15/11:00am 15.1 7.5 11.9 81 1.7 NW 43 57 23 31 1006.0 1006.0 0.2
15/10:40am 14.7 8.8 12.4 86 1.3 NW 35 54 19 29 1006.2 1006.2 0.2
15/10:30am 14.1 6.6 12.0 87 1.1 NW 43 59 23 32 1006.3 1006.3 0.2
15/10:17am 15.0 8.0 12.5 85 1.4 NNW 41 59 22 32 1006.4 1006.4 0.0
15/10:00am 15.0 8.9 12.9 87 1.2 NNW 37 44 20 24 1006.6 1006.6 0.0
15/09:30am 15.3 9.2 13.0 86 1.3 NNW 37 44 20 24 1006.9 1006.9 0.0
15/09:12am 14.9 9.2 12.9 88 1.1 NNW 35 44 19 24 1007.1 1007.1 0.0
15/09:00am 14.5 9.1 12.9 90 0.9 NW 33 46 18 25 1007.4 1007.4 1.2
15/08:31am 14.0 7.3 12.4 90 0.9 NW 39 57 21 31 1007.5 1007.5 1.2
15/08:30am 13.9 7.5 12.1 89 1.0 NW 37 54 20 29 1007.5 1007.5 1.2
15/08:00am 14.6 9.9 13.1 91 0.8 NW 30 41 16 22 1007.2 1007.2 1.2
15/07:30am 14.2 10.2 12.9 92 0.7 WNW 26 39 14 21 1007.5 1007.5 1.2
15/07:00am 13.6 8.0 12.2 91 0.8 NW 33 43 18 23 1007.5 1007.5 1.2
15/06:30am 14.4 9.2 12.8 90 0.9 NW 32 41 17 22 1007.4 1007.4 1.0
15/06:00am 14.7 10.4 13.1 90 0.9 NNW 28 32 15 17 1007.1 1007.1 1.0
15/05:30am 14.9 9.4 12.4 85 1.4 NW 33 41 18 22 1007.2 1007.2 1.0
15/05:00am 14.6 8.9 11.9 84 1.5 WNW 33 44 18 24 1007.4 1007.4 1.0
15/04:30am 14.4 8.9 12.6 89 1.0 NW 33 44 18 24 1007.5 1007.5 1.0
15/04:00am 13.8 6.8 12.4 91 0.8 NW 41 57 22 31 1007.7 1007.7 1.0
15/03:50am 14.9 9.8 12.0 83 1.6 NW 30 57 16 31 1007.8 1007.8 1.0
15/03:30am 15.0 10.3 12.1 83 1.6 WNW 28 37 15 20 1008.0 1008.0 1.0
15/03:00am 15.0 8.7 11.2 78 2.0 WNW 35 44 19 24 1008.1 1008.1 1.0
15/02:30am 14.7 8.1 11.5 81 1.7 WNW 37 46 20 25 1008.2 1008.2 1.0
15/02:00am 14.8 9.1 13.0 89 1.0 WNW 35 44 19 24 1008.2 1008.2 1.0
15/01:30am 15.0 9.9 13.2 89 1.0 WNW 32 41 17 22 1008.3 1008.3 0.8
15/01:00am 15.2 11.4 13.7 91 0.8 WNW 26 33 14 18 1008.4 1008.4 0.8
15/12:30am 14.9 9.6 13.1 89 1.0 WNW 33 41 18 22 1008.4 1008.4 0.8
15/12:00am 14.7 8.6 12.9 89 1.0 WNW 37 46 20 25 1008.3 1008.3 0.8
 
Date/Time
EST
Temp
°C
App
Temp
°C
Dew
Point
°C
Rel
Hum
%
Delta-T
°C
Wind Press
QNH
hPa
Press
MSL
hPa
Rain since
9am
mm
Dir  Spd
km/h
Gust
km/h
Spd
kts
Gust
kts
14/11:36pm 15.2 9.9 13.2 88 1.1 WNW 33 44 18 24 1008.2 1008.2 0.6
14/11:30pm 15.3 10.3 13.3 88 1.1 NW 32 39 17 21 1008.1 1008.1 0.6
14/11:00pm 15.5 10.7 13.9 90 0.9 WNW 32 41 17 22 1008.2 1008.2 0.6
14/10:38pm 15.5 10.7 14.0 91 0.8 WNW 32 41 17 22 1008.3 1008.3 0.6
14/10:30pm 15.5 10.1 13.9 90 0.9 WNW 35 43 19 23 1008.3 1008.3 0.6
14/10:00pm 14.9 8.9 13.4 91 0.8 WNW 37 48 20 26 1008.2 1008.2 0.6
14/09:30pm 15.4 9.7 13.1 86 1.3 WNW 35 46 19 25 1008.3 1008.3 0.6
14/09:28pm 15.6 10.0 13.3 86 1.3 WNW 35 54 19 29 1008.3 1008.3 0.6
14/09:00pm 16.1 10.3 13.9 87 1.3 WNW 37 48 20 26 1008.0 1008.0 0.6
14/08:30pm 16.1 10.4 14.1 88 1.1 WNW 37 50 20 27 1007.8 1007.8 0.6
14/08:00pm 16.3 9.1 13.8 85 1.4 WNW 44 57 24 31 1007.5 1007.5 0.6
14/07:52pm 16.2 10.0 13.9 86 1.3 WNW 39 57 21 31 1007.4 1007.4 0.6
14/07:30pm 16.4 9.5 13.9 85 1.4 WNW 43 59 23 32 1007.3 1007.3 0.6
14/07:00pm 16.2 10.1 14.0 87 1.3 NW 39 54 21 29 1007.0 1007.0 0.6
14/06:30pm 15.4 9.1 13.6 89 1.0 NW 39 50 21 27 1006.9 1006.9 0.6
14/06:00pm 15.4 8.7 13.4 88 1.1 NW 41 59 22 32 1006.6 1006.6 0.6
14/05:33pm 15.3 8.1 13.0 86 1.3 NW 43 61 23 33 1006.3 1006.3 0.6
14/05:30pm 15.2 7.5 13.2 88 1.1 NW 46 61 25 33 1006.3 1006.3 0.6
14/05:05pm 16.1 8.8 12.7 80 1.9 NW 43 69 23 37 1006.2 1006.2 0.4
14/05:00pm 16.8 10.0 13.1 79 2.1 NW 41 57 22 31 1006.0 1006.0 0.4
14/04:32pm 16.6 10.2 13.1 80 2.0 NW 39 57 21 31 1006.1 1006.1 0.4
14/04:30pm 16.6 9.7 12.9 79 2.1 NW 41 57 22 31 1006.1 1006.1 0.4
14/04:00pm 16.9 10.1 13.0 78 2.2 NW 41 61 22 33 1006.1 1006.1 0.4
14/03:43pm 16.6 11.3 14.1 85 1.4 NNW 35 54 19 29 1006.1 1006.1 0.4
14/03:30pm 16.2 10.4 14.0 87 1.3 NNW 37 46 20 25 1006.0 1006.0 0.4
14/03:00pm 16.1 9.9 13.9 87 1.3 NNW 39 50 21 27 1005.6 1005.7 0.4
14/02:30pm 16.0 9.4 13.7 86 1.3 NNW 41 56 22 30 1005.4 1005.4 0.4
14/02:00pm 15.9 8.9 13.7 87 1.2 N 43 57 23 31 1005.2 1005.2 0.4
14/01:30pm 15.7 8.5 13.7 88 1.1 N 44 57 24 31 1005.1 1005.1 0.4
14/01:00pm 15.9 9.0 14.1 89 1.0 N 43 54 23 29 1005.4 1005.4 0.4
14/12:30pm 15.5 9.0 14.0 91 0.8 N 41 50 22 27 1005.8 1005.8 0.4
14/12:00pm 15.5 9.4 14.2 92 0.7 N 39 52 21 28 1006.4 1006.4 0.4
14/11:30am 15.6 8.7 14.1 91 0.9 N 43 56 23 30 1007.0 1007.0 0.4
14/11:00am 15.8 9.4 14.2 90 0.9 N 41 54 22 29 1007.3 1007.3 0.2
14/10:30am 15.8 9.4 14.2 90 0.9 N 41 50 22 27 1007.6 1007.6 0.2
14/10:00am 15.7 10.2 14.6 93 0.6 N 37 44 20 24 1007.9 1007.9 0.2
14/09:30am 15.7 11.2 14.9 95 0.5 N 32 41 17 22 1008.0 1008.0 0.2
14/09:00am 15.5 10.7 14.7 95 0.5 N 33 46 18 25 1008.4 1008.4 4.2
14/08:30am 15.5 10.4 14.9 96 0.3 N 35 43 19 23 1008.0 1008.0 4.0
14/08:00am 15.4 10.7 14.9 97 0.3 NNE 33 44 18 24 1007.9 1007.9 4.0
14/07:30am 15.5 10.1 15.0 97 0.3 N 37 44 20 24 1008.7 1008.7 3.8
14/07:08am 15.4 10.7 14.9 97 0.3 NNE 33 43 18 23 1008.5 1008.5 3.6
14/07:00am 15.5 11.0 15.0 97 0.3 NNE 32 39 17 21 1008.2 1008.2 3.6
14/06:30am 15.5 10.9 15.0 97 0.3 N 33 41 18 22 1008.9 1008.9 3.6
14/06:00am 15.5 10.5 15.0 97 0.3 N 35 43 19 23 1009.0 1009.0 2.8
14/05:30am 15.4 10.3 14.9 97 0.3 N 35 39 19 21 1009.2 1009.2 2.2
14/05:00am 15.4 10.7 14.9 97 0.3 NNE 33 41 18 22 1009.3 1009.3 2.0
14/04:30am 15.3 10.3 15.0 98 0.2 NNE 35 44 19 24 1009.0 1009.0 2.0
14/04:00am 15.2 9.8 14.9 98 0.2 NNE 37 44 20 24 1009.3 1009.3 2.0
14/03:30am 15.2 9.8 14.9 98 0.2 NNE 37 43 20 23 1009.8 1009.8 1.8
14/03:00am 15.2 10.5 14.9 98 0.2 NE 33 41 18 22 1010.1 1010.1 1.6
14/02:30am 15.2 10.7 14.9 98 0.2 NE 32 39 17 21 1010.8 1010.8 1.6

Other formats

Comma delimited format used in spreadsheet applications
http://www.bom.gov.au/fwo/IDT60801/IDT60801.95954.axf

JavaScript Object Notation format (JSON) in row-major order
http://www.bom.gov.au/fwo/IDT60801/IDT60801.95954.json

Data quality

Most of these data are generated automatically and are frequently updated. Quality checks on data are not normally performed. It is possible for incorrect values to appear. Refer to information at About Latest Weather Observations and please check the disclaimer before using these data.